sensor_id;sensor_type;location;lat;lon;timestamp;P1;durP1;ratioP1;P2;durP2;ratioP2
8399;SDS011;4237;47.030;15.396;2024-03-17T00:00:06;6.63;;;5.90;;
8399;SDS011;4237;47.030;15.396;2024-03-17T00:02:37;7.53;;;6.60;;
8399;SDS011;4237;47.030;15.396;2024-03-17T00:05:05;7.67;;;5.53;;
8399;SDS011;4237;47.030;15.396;2024-03-17T00:07:34;6.80;;;6.10;;
8399;SDS011;4237;47.030;15.396;2024-03-17T00:10:03;6.57;;;5.90;;
8399;SDS011;4237;47.030;15.396;2024-03-17T00:12:34;7.83;;;5.80;;
8399;SDS011;4237;47.030;15.396;2024-03-17T00:15:03;5.67;;;5.10;;
8399;SDS011;4237;47.030;15.396;2024-03-17T00:17:33;5.50;;;4.90;;
8399;SDS011;4237;47.030;15.396;2024-03-17T00:20:03;5.23;;;4.73;;
8399;SDS011;4237;47.030;15.396;2024-03-17T00:22:34;5.57;;;4.50;;
8399;SDS011;4237;47.030;15.396;2024-03-17T00:25:07;5.30;;;4.33;;
8399;SDS011;4237;47.030;15.396;2024-03-17T00:27:36;5.20;;;4.53;;
8399;SDS011;4237;47.030;15.396;2024-03-17T00:30:07;4.30;;;3.90;;
8399;SDS011;4237;47.030;15.396;2024-03-17T00:32:39;3.87;;;3.50;;
8399;SDS011;4237;47.030;15.396;2024-03-17T00:35:09;4.43;;;3.13;;
8399;SDS011;4237;47.030;15.396;2024-03-17T00:37:39;3.13;;;2.53;;
8399;SDS011;4237;47.030;15.396;2024-03-17T00:40:08;3.73;;;2.60;;
8399;SDS011;4237;47.030;15.396;2024-03-17T00:42:38;2.60;;;2.37;;
8399;SDS011;4237;47.030;15.396;2024-03-17T00:45:07;3.00;;;2.70;;
8399;SDS011;4237;47.030;15.396;2024-03-17T00:47:37;2.70;;;2.37;;
8399;SDS011;4237;47.030;15.396;2024-03-17T00:50:06;2.83;;;2.53;;
8399;SDS011;4237;47.030;15.396;2024-03-17T00:52:35;4.13;;;2.13;;
8399;SDS011;4237;47.030;15.396;2024-03-17T00:55:03;2.53;;;1.90;;
8399;SDS011;4237;47.030;15.396;2024-03-17T00:57:32;1.97;;;1.80;;
8399;SDS011;4237;47.030;15.396;2024-03-17T01:00:01;2.10;;;1.83;;
8399;SDS011;4237;47.030;15.396;2024-03-17T01:02:30;2.67;;;2.00;;
8399;SDS011;4237;47.030;15.396;2024-03-17T01:04:58;2.70;;;2.37;;
8399;SDS011;4237;47.030;15.396;2024-03-17T01:07:27;2.10;;;1.90;;
8399;SDS011;4237;47.030;15.396;2024-03-17T01:09:56;3.33;;;2.40;;
8399;SDS011;4237;47.030;15.396;2024-03-17T01:12:25;3.13;;;2.23;;
8399;SDS011;4237;47.030;15.396;2024-03-17T01:14:54;2.67;;;2.00;;
8399;SDS011;4237;47.030;15.396;2024-03-17T01:17:22;2.57;;;2.10;;
8399;SDS011;4237;47.030;15.396;2024-03-17T01:19:51;2.47;;;1.93;;
8399;SDS011;4237;47.030;15.396;2024-03-17T01:22:19;2.93;;;1.70;;
8399;SDS011;4237;47.030;15.396;2024-03-17T01:24:48;5.20;;;2.47;;
8399;SDS011;4237;47.030;15.396;2024-03-17T01:27:17;1.73;;;1.63;;
8399;SDS011;4237;47.030;15.396;2024-03-17T01:29:46;1.47;;;1.37;;
8399;SDS011;4237;47.030;15.396;2024-03-17T01:32:15;3.20;;;1.50;;
8399;SDS011;4237;47.030;15.396;2024-03-17T01:34:45;4.57;;;1.80;;
8399;SDS011;4237;47.030;15.396;2024-03-17T01:37:14;2.13;;;1.90;;
8399;SDS011;4237;47.030;15.396;2024-03-17T01:39:42;4.63;;;1.90;;
8399;SDS011;4237;47.030;15.396;2024-03-17T01:42:11;1.83;;;1.63;;
8399;SDS011;4237;47.030;15.396;2024-03-17T01:44:40;2.43;;;1.90;;
8399;SDS011;4237;47.030;15.396;2024-03-17T01:47:08;3.20;;;2.30;;
8399;SDS011;4237;47.030;15.396;2024-03-17T01:49:37;4.03;;;2.80;;
8399;SDS011;4237;47.030;15.396;2024-03-17T01:52:07;3.60;;;2.90;;
8399;SDS011;4237;47.030;15.396;2024-03-17T01:54:35;4.20;;;3.43;;
8399;SDS011;4237;47.030;15.396;2024-03-17T01:57:04;4.63;;;3.27;;
8399;SDS011;4237;47.030;15.396;2024-03-17T01:59:34;4.30;;;3.33;;
8399;SDS011;4237;47.030;15.396;2024-03-17T02:02:03;3.47;;;2.97;;
8399;SDS011;4237;47.030;15.396;2024-03-17T02:04:32;3.77;;;2.90;;
8399;SDS011;4237;47.030;15.396;2024-03-17T02:07:01;2.80;;;2.40;;
8399;SDS011;4237;47.030;15.396;2024-03-17T02:09:29;3.07;;;2.20;;
8399;SDS011;4237;47.030;15.396;2024-03-17T02:11:58;3.00;;;2.70;;
8399;SDS011;4237;47.030;15.396;2024-03-17T02:14:27;3.50;;;2.33;;
8399;SDS011;4237;47.030;15.396;2024-03-17T02:16:55;2.60;;;2.40;;
8399;SDS011;4237;47.030;15.396;2024-03-17T02:19:24;2.70;;;2.20;;
8399;SDS011;4237;47.030;15.396;2024-03-17T02:21:53;2.83;;;2.50;;
8399;SDS011;4237;47.030;15.396;2024-03-17T02:24:21;3.90;;;2.57;;
8399;SDS011;4237;47.030;15.396;2024-03-17T02:26:50;4.10;;;2.60;;
8399;SDS011;4237;47.030;15.396;2024-03-17T02:29:18;2.73;;;2.13;;
8399;SDS011;4237;47.030;15.396;2024-03-17T02:31:47;2.80;;;2.37;;
8399;SDS011;4237;47.030;15.396;2024-03-17T02:34:15;3.57;;;2.20;;
8399;SDS011;4237;47.030;15.396;2024-03-17T02:36:44;3.83;;;2.50;;
8399;SDS011;4237;47.030;15.396;2024-03-17T02:39:13;3.93;;;2.33;;
8399;SDS011;4237;47.030;15.396;2024-03-17T02:42:09;3.47;;;2.37;;
8399;SDS011;4237;47.030;15.396;2024-03-17T02:44:33;2.90;;;2.57;;
8399;SDS011;4237;47.030;15.396;2024-03-17T02:47:03;2.97;;;2.60;;
8399;SDS011;4237;47.030;15.396;2024-03-17T02:49:34;4.53;;;2.80;;
8399;SDS011;4237;47.030;15.396;2024-03-17T02:52:10;3.27;;;2.40;;
8399;SDS011;4237;47.030;15.396;2024-03-17T02:54:39;2.73;;;2.53;;
8399;SDS011;4237;47.030;15.396;2024-03-17T02:57:08;2.90;;;2.40;;
8399;SDS011;4237;47.030;15.396;2024-03-17T02:59:36;3.37;;;2.57;;
8399;SDS011;4237;47.030;15.396;2024-03-17T03:02:05;3.23;;;2.33;;
8399;SDS011;4237;47.030;15.396;2024-03-17T03:04:33;3.23;;;2.07;;
8399;SDS011;4237;47.030;15.396;2024-03-17T03:07:02;2.17;;;1.97;;
8399;SDS011;4237;47.030;15.396;2024-03-17T03:09:31;3.30;;;2.03;;
8399;SDS011;4237;47.030;15.396;2024-03-17T03:11:59;2.70;;;2.50;;
8399;SDS011;4237;47.030;15.396;2024-03-17T03:14:31;2.43;;;2.23;;
8399;SDS011;4237;47.030;15.396;2024-03-17T03:17:00;3.17;;;1.83;;
8399;SDS011;4237;47.030;15.396;2024-03-17T03:19:28;5.33;;;2.90;;
8399;SDS011;4237;47.030;15.396;2024-03-17T03:21:57;3.03;;;2.30;;
8399;SDS011;4237;47.030;15.396;2024-03-17T03:24:26;2.40;;;2.20;;
8399;SDS011;4237;47.030;15.396;2024-03-17T03:26:54;3.03;;;2.30;;
8399;SDS011;4237;47.030;15.396;2024-03-17T03:29:23;3.43;;;2.20;;
8399;SDS011;4237;47.030;15.396;2024-03-17T03:31:51;2.97;;;2.07;;
8399;SDS011;4237;47.030;15.396;2024-03-17T03:34:20;1.90;;;1.80;;
8399;SDS011;4237;47.030;15.396;2024-03-17T03:36:50;1.97;;;1.50;;
8399;SDS011;4237;47.030;15.396;2024-03-17T03:39:18;1.30;;;1.20;;
8399;SDS011;4237;47.030;15.396;2024-03-17T03:41:47;1.50;;;1.40;;
8399;SDS011;4237;47.030;15.396;2024-03-17T03:44:15;1.27;;;1.17;;
8399;SDS011;4237;47.030;15.396;2024-03-17T03:46:44;1.90;;;1.27;;
8399;SDS011;4237;47.030;15.396;2024-03-17T03:49:13;5.17;;;3.53;;
8399;SDS011;4237;47.030;15.396;2024-03-17T03:51:42;3.77;;;3.10;;
8399;SDS011;4237;47.030;15.396;2024-03-17T03:54:10;5.20;;;3.37;;
8399;SDS011;4237;47.030;15.396;2024-03-17T03:56:39;4.27;;;3.57;;
8399;SDS011;4237;47.030;15.396;2024-03-17T03:59:07;4.83;;;3.53;;
8399;SDS011;4237;47.030;15.396;2024-03-17T04:01:36;5.03;;;3.70;;
8399;SDS011;4237;47.030;15.396;2024-03-17T04:04:04;4.83;;;3.80;;
8399;SDS011;4237;47.030;15.396;2024-03-17T04:06:33;3.30;;;2.80;;
8399;SDS011;4237;47.030;15.396;2024-03-17T04:09:03;4.17;;;3.30;;
8399;SDS011;4237;47.030;15.396;2024-03-17T04:11:33;4.50;;;3.10;;
8399;SDS011;4237;47.030;15.396;2024-03-17T04:14:01;3.87;;;2.80;;
8399;SDS011;4237;47.030;15.396;2024-03-17T04:16:31;3.63;;;2.60;;
8399;SDS011;4237;47.030;15.396;2024-03-17T04:19:00;3.73;;;3.00;;
8399;SDS011;4237;47.030;15.396;2024-03-17T04:21:28;5.53;;;3.40;;
8399;SDS011;4237;47.030;15.396;2024-03-17T04:23:57;4.53;;;3.40;;
8399;SDS011;4237;47.030;15.396;2024-03-17T04:26:26;7.13;;;3.90;;
8399;SDS011;4237;47.030;15.396;2024-03-17T04:28:54;4.23;;;3.30;;
8399;SDS011;4237;47.030;15.396;2024-03-17T04:31:23;3.77;;;3.20;;
8399;SDS011;4237;47.030;15.396;2024-03-17T04:33:52;5.07;;;3.30;;
8399;SDS011;4237;47.030;15.396;2024-03-17T04:36:20;4.10;;;3.23;;
8399;SDS011;4237;47.030;15.396;2024-03-17T04:38:49;2.90;;;2.60;;
8399;SDS011;4237;47.030;15.396;2024-03-17T04:41:17;5.00;;;2.90;;
8399;SDS011;4237;47.030;15.396;2024-03-17T04:43:46;3.87;;;3.40;;
8399;SDS011;4237;47.030;15.396;2024-03-17T04:46:15;4.03;;;3.30;;
8399;SDS011;4237;47.030;15.396;2024-03-17T04:48:43;3.77;;;2.97;;
8399;SDS011;4237;47.030;15.396;2024-03-17T04:51:15;4.23;;;3.73;;
8399;SDS011;4237;47.030;15.396;2024-03-17T04:53:44;4.63;;;3.30;;
8399;SDS011;4237;47.030;15.396;2024-03-17T04:56:12;4.00;;;3.17;;
8399;SDS011;4237;47.030;15.396;2024-03-17T04:58:41;3.67;;;2.90;;
8399;SDS011;4237;47.030;15.396;2024-03-17T05:01:10;4.00;;;2.97;;
8399;SDS011;4237;47.030;15.396;2024-03-17T05:03:39;2.80;;;2.47;;
8399;SDS011;4237;47.030;15.396;2024-03-17T05:06:08;5.07;;;2.80;;
8399;SDS011;4237;47.030;15.396;2024-03-17T05:08:36;3.20;;;2.83;;
8399;SDS011;4237;47.030;15.396;2024-03-17T05:11:05;4.73;;;2.90;;
8399;SDS011;4237;47.030;15.396;2024-03-17T05:13:34;3.10;;;2.80;;
8399;SDS011;4237;47.030;15.396;2024-03-17T05:16:06;3.03;;;2.77;;
8399;SDS011;4237;47.030;15.396;2024-03-17T05:18:35;3.13;;;2.40;;
8399;SDS011;4237;47.030;15.396;2024-03-17T05:21:05;3.03;;;2.30;;
8399;SDS011;4237;47.030;15.396;2024-03-17T05:23:36;5.60;;;2.40;;
8399;SDS011;4237;47.030;15.396;2024-03-17T05:26:05;3.47;;;2.40;;
8399;SDS011;4237;47.030;15.396;2024-03-17T05:28:34;3.00;;;2.53;;
8399;SDS011;4237;47.030;15.396;2024-03-17T05:31:02;2.60;;;2.40;;
8399;SDS011;4237;47.030;15.396;2024-03-17T05:33:31;2.43;;;2.20;;
8399;SDS011;4237;47.030;15.396;2024-03-17T05:36:00;2.70;;;1.90;;
8399;SDS011;4237;47.030;15.396;2024-03-17T05:38:31;2.97;;;1.50;;
8399;SDS011;4237;47.030;15.396;2024-03-17T05:41:00;2.63;;;1.90;;
8399;SDS011;4237;47.030;15.396;2024-03-17T05:43:30;1.80;;;1.60;;
8399;SDS011;4237;47.030;15.396;2024-03-17T05:46:06;1.40;;;1.30;;
8399;SDS011;4237;47.030;15.396;2024-03-17T05:48:36;2.30;;;1.50;;
8399;SDS011;4237;47.030;15.396;2024-03-17T05:51:11;1.50;;;1.40;;
8399;SDS011;4237;47.030;15.396;2024-03-17T05:53:37;3.17;;;1.80;;
8399;SDS011;4237;47.030;15.396;2024-03-17T05:56:11;5.53;;;3.97;;
8399;SDS011;4237;47.030;15.396;2024-03-17T05:58:40;3.20;;;2.50;;
8399;SDS011;4237;47.030;15.396;2024-03-17T06:01:08;2.60;;;2.40;;
8399;SDS011;4237;47.030;15.396;2024-03-17T06:03:38;2.50;;;2.30;;
8399;SDS011;4237;47.030;15.396;2024-03-17T06:06:07;4.97;;;3.00;;
8399;SDS011;4237;47.030;15.396;2024-03-17T06:08:39;6.77;;;3.73;;
8399;SDS011;4237;47.030;15.396;2024-03-17T06:11:07;6.43;;;4.07;;
8399;SDS011;4237;47.030;15.396;2024-03-17T06:13:36;7.63;;;4.50;;
8399;SDS011;4237;47.030;15.396;2024-03-17T06:16:04;4.00;;;3.60;;
8399;SDS011;4237;47.030;15.396;2024-03-17T06:18:33;2.87;;;2.50;;
8399;SDS011;4237;47.030;15.396;2024-03-17T06:21:04;2.20;;;2.00;;
8399;SDS011;4237;47.030;15.396;2024-03-17T06:23:32;2.90;;;2.53;;
8399;SDS011;4237;47.030;15.396;2024-03-17T06:26:01;2.83;;;2.40;;
8399;SDS011;4237;47.030;15.396;2024-03-17T06:28:31;3.03;;;1.93;;
8399;SDS011;4237;47.030;15.396;2024-03-17T06:30:59;4.23;;;1.87;;
8399;SDS011;4237;47.030;15.396;2024-03-17T06:33:30;3.90;;;1.67;;
8399;SDS011;4237;47.030;15.396;2024-03-17T06:36:02;3.00;;;1.50;;
8399;SDS011;4237;47.030;15.396;2024-03-17T06:38:32;2.30;;;1.10;;
8399;SDS011;4237;47.030;15.396;2024-03-17T06:41:01;1.87;;;1.30;;
8399;SDS011;4237;47.030;15.396;2024-03-17T06:43:30;1.70;;;0.97;;
8399;SDS011;4237;47.030;15.396;2024-03-17T06:45:59;1.30;;;1.10;;
8399;SDS011;4237;47.030;15.396;2024-03-17T06:48:28;2.03;;;1.20;;
8399;SDS011;4237;47.030;15.396;2024-03-17T06:50:57;3.00;;;1.20;;
8399;SDS011;4237;47.030;15.396;2024-03-17T06:53:26;1.30;;;1.20;;
8399;SDS011;4237;47.030;15.396;2024-03-17T06:55:55;1.40;;;1.20;;
8399;SDS011;4237;47.030;15.396;2024-03-17T06:58:25;1.30;;;1.03;;
8399;SDS011;4237;47.030;15.396;2024-03-17T07:00:56;1.30;;;1.20;;
8399;SDS011;4237;47.030;15.396;2024-03-17T07:03:29;1.70;;;1.60;;
8399;SDS011;4237;47.030;15.396;2024-03-17T07:05:59;1.43;;;1.33;;
8399;SDS011;4237;47.030;15.396;2024-03-17T07:08:33;2.43;;;1.23;;
8399;SDS011;4237;47.030;15.396;2024-03-17T07:11:03;1.47;;;1.37;;
8399;SDS011;4237;47.030;15.396;2024-03-17T07:13:34;2.97;;;1.10;;
8399;SDS011;4237;47.030;15.396;2024-03-17T07:16:04;2.63;;;1.20;;
8399;SDS011;4237;47.030;15.396;2024-03-17T07:18:33;2.03;;;1.10;;
8399;SDS011;4237;47.030;15.396;2024-03-17T07:21:03;2.23;;;1.00;;
8399;SDS011;4237;47.030;15.396;2024-03-17T07:23:32;1.23;;;1.00;;
8399;SDS011;4237;47.030;15.396;2024-03-17T07:26:01;1.97;;;1.20;;
8399;SDS011;4237;47.030;15.396;2024-03-17T07:28:31;3.50;;;1.63;;
8399;SDS011;4237;47.030;15.396;2024-03-17T07:31:00;3.40;;;1.30;;
8399;SDS011;4237;47.030;15.396;2024-03-17T07:33:28;2.80;;;1.70;;
8399;SDS011;4237;47.030;15.396;2024-03-17T07:35:57;1.33;;;1.20;;
8399;SDS011;4237;47.030;15.396;2024-03-17T07:38:31;4.27;;;1.30;;
8399;SDS011;4237;47.030;15.396;2024-03-17T07:41:02;2.93;;;1.20;;
8399;SDS011;4237;47.030;15.396;2024-03-17T07:43:32;1.40;;;1.20;;
8399;SDS011;4237;47.030;15.396;2024-03-17T07:46:03;1.93;;;1.13;;
8399;SDS011;4237;47.030;15.396;2024-03-17T07:48:34;1.20;;;1.10;;
8399;SDS011;4237;47.030;15.396;2024-03-17T07:51:06;2.40;;;1.40;;
8399;SDS011;4237;47.030;15.396;2024-03-17T07:53:36;2.53;;;1.13;;
8399;SDS011;4237;47.030;15.396;2024-03-17T07:56:09;1.53;;;1.00;;
8399;SDS011;4237;47.030;15.396;2024-03-17T07:58:39;2.83;;;1.10;;
8399;SDS011;4237;47.030;15.396;2024-03-17T08:01:09;1.70;;;1.20;;
8399;SDS011;4237;47.030;15.396;2024-03-17T08:03:40;1.90;;;0.90;;
8399;SDS011;4237;47.030;15.396;2024-03-17T08:06:13;1.20;;;1.00;;
8399;SDS011;4237;47.030;15.396;2024-03-17T08:08:41;1.63;;;0.53;;
8399;SDS011;4237;47.030;15.396;2024-03-17T08:11:10;0.60;;;0.50;;
8399;SDS011;4237;47.030;15.396;2024-03-17T08:13:38;0.37;;;0.30;;
8399;SDS011;4237;47.030;15.396;2024-03-17T08:16:07;0.90;;;0.40;;
8399;SDS011;4237;47.030;15.396;2024-03-17T08:18:36;0.30;;;0.30;;
8399;SDS011;4237;47.030;15.396;2024-03-17T08:21:05;0.83;;;0.40;;
8399;SDS011;4237;47.030;15.396;2024-03-17T08:23:33;0.20;;;0.20;;
8399;SDS011;4237;47.030;15.396;2024-03-17T08:26:13;0.20;;;0.20;;
8399;SDS011;4237;47.030;15.396;2024-03-17T08:28:41;1.27;;;0.30;;
8399;SDS011;4237;47.030;15.396;2024-03-17T08:31:10;0.20;;;0.20;;
8399;SDS011;4237;47.030;15.396;2024-03-17T08:33:39;0.20;;;0.20;;
8399;SDS011;4237;47.030;15.396;2024-03-17T08:36:08;0.60;;;0.50;;
8399;SDS011;4237;47.030;15.396;2024-03-17T08:38:37;0.57;;;0.40;;
8399;SDS011;4237;47.030;15.396;2024-03-17T08:41:07;1.10;;;0.80;;
8399;SDS011;4237;47.030;15.396;2024-03-17T08:43:37;1.20;;;0.50;;
8399;SDS011;4237;47.030;15.396;2024-03-17T08:46:07;0.60;;;0.50;;
8399;SDS011;4237;47.030;15.396;2024-03-17T08:48:37;1.43;;;0.70;;
8399;SDS011;4237;47.030;15.396;2024-03-17T08:51:08;0.60;;;0.60;;
8399;SDS011;4237;47.030;15.396;2024-03-17T08:53:37;0.90;;;0.50;;
8399;SDS011;4237;47.030;15.396;2024-03-17T08:56:06;1.03;;;0.70;;
8399;SDS011;4237;47.030;15.396;2024-03-17T08:58:35;0.60;;;0.50;;
8399;SDS011;4237;47.030;15.396;2024-03-17T09:01:04;0.70;;;0.50;;
8399;SDS011;4237;47.030;15.396;2024-03-17T09:03:35;1.03;;;0.40;;
8399;SDS011;4237;47.030;15.396;2024-03-17T09:06:04;0.53;;;0.47;;
8399;SDS011;4237;47.030;15.396;2024-03-17T09:08:34;0.80;;;0.50;;
8399;SDS011;4237;47.030;15.396;2024-03-17T09:11:03;1.07;;;0.57;;
8399;SDS011;4237;47.030;15.396;2024-03-17T09:13:33;0.80;;;0.50;;
8399;SDS011;4237;47.030;15.396;2024-03-17T09:16:02;0.50;;;0.50;;
8399;SDS011;4237;47.030;15.396;2024-03-17T09:18:32;1.50;;;0.60;;
8399;SDS011;4237;47.030;15.396;2024-03-17T09:21:02;0.50;;;0.50;;
8399;SDS011;4237;47.030;15.396;2024-03-17T09:23:32;0.70;;;0.50;;
8399;SDS011;4237;47.030;15.396;2024-03-17T09:26:05;0.40;;;0.40;;
8399;SDS011;4237;47.030;15.396;2024-03-17T09:28:39;0.60;;;0.50;;
8399;SDS011;4237;47.030;15.396;2024-03-17T09:31:07;0.30;;;0.30;;
8399;SDS011;4237;47.030;15.396;2024-03-17T09:33:38;1.73;;;0.50;;
8399;SDS011;4237;47.030;15.396;2024-03-17T09:36:07;1.23;;;0.50;;
8399;SDS011;4237;47.030;15.396;2024-03-17T09:38:40;0.60;;;0.50;;
8399;SDS011;4237;47.030;15.396;2024-03-17T09:41:20;1.10;;;0.50;;
8399;SDS011;4237;47.030;15.396;2024-03-17T09:43:55;1.63;;;0.50;;
8399;SDS011;4237;47.030;15.396;2024-03-17T09:46:26;0.40;;;0.40;;
8399;SDS011;4237;47.030;15.396;2024-03-17T09:48:55;0.97;;;0.60;;
8399;SDS011;4237;47.030;15.396;2024-03-17T09:51:25;0.53;;;0.50;;
8399;SDS011;4237;47.030;15.396;2024-03-17T09:53:53;1.47;;;0.60;;
8399;SDS011;4237;47.030;15.396;2024-03-17T09:56:22;0.87;;;0.50;;
8399;SDS011;4237;47.030;15.396;2024-03-17T09:58:51;0.67;;;0.40;;
8399;SDS011;4237;47.030;15.396;2024-03-17T10:01:20;0.70;;;0.63;;
8399;SDS011;4237;47.030;15.396;2024-03-17T10:03:49;0.60;;;0.60;;
8399;SDS011;4237;47.030;15.396;2024-03-17T10:06:22;0.63;;;0.60;;
8399;SDS011;4237;47.030;15.396;2024-03-17T10:08:52;0.57;;;0.47;;
8399;SDS011;4237;47.030;15.396;2024-03-17T10:11:25;0.60;;;0.60;;
8399;SDS011;4237;47.030;15.396;2024-03-17T10:14:05;0.60;;;0.60;;
8399;SDS011;4237;47.030;15.396;2024-03-17T10:16:36;0.60;;;0.60;;
8399;SDS011;4237;47.030;15.396;2024-03-17T10:19:06;0.70;;;0.70;;
8399;SDS011;4237;47.030;15.396;2024-03-17T10:21:37;1.03;;;0.70;;
8399;SDS011;4237;47.030;15.396;2024-03-17T10:24:11;1.20;;;0.60;;
8399;SDS011;4237;47.030;15.396;2024-03-17T10:26:42;1.27;;;0.70;;
8399;SDS011;4237;47.030;15.396;2024-03-17T10:29:25;0.50;;;0.50;;
8399;SDS011;4237;47.030;15.396;2024-03-17T10:32:03;0.63;;;0.60;;
8399;SDS011;4237;47.030;15.396;2024-03-17T10:34:34;0.50;;;0.50;;
8399;SDS011;4237;47.030;15.396;2024-03-17T10:37:15;2.37;;;0.73;;
8399;SDS011;4237;47.030;15.396;2024-03-17T10:39:48;1.50;;;0.50;;
8399;SDS011;4237;47.030;15.396;2024-03-17T10:42:22;0.50;;;0.50;;
8399;SDS011;4237;47.030;15.396;2024-03-17T10:45:04;0.63;;;0.60;;
8399;SDS011;4237;47.030;15.396;2024-03-17T10:47:34;0.60;;;0.60;;
8399;SDS011;4237;47.030;15.396;2024-03-17T10:50:03;0.50;;;0.50;;
8399;SDS011;4237;47.030;15.396;2024-03-17T10:52:35;0.97;;;0.70;;
8399;SDS011;4237;47.030;15.396;2024-03-17T10:55:09;0.60;;;0.60;;
8399;SDS011;4237;47.030;15.396;2024-03-17T10:57:46;1.03;;;0.70;;
8399;SDS011;4237;47.030;15.396;2024-03-17T11:00:16;0.90;;;0.47;;
8399;SDS011;4237;47.030;15.396;2024-03-17T11:02:49;1.50;;;0.60;;
8399;SDS011;4237;47.030;15.396;2024-03-17T11:05:21;1.03;;;0.60;;
8399;SDS011;4237;47.030;15.396;2024-03-17T11:07:52;0.40;;;0.40;;
8399;SDS011;4237;47.030;15.396;2024-03-17T11:10:26;0.60;;;0.53;;
8399;SDS011;4237;47.030;15.396;2024-03-17T11:13:02;0.83;;;0.70;;
8399;SDS011;4237;47.030;15.396;2024-03-17T11:20:41;0.60;;;0.57;;
8399;SDS011;4237;47.030;15.396;2024-03-17T11:23:12;0.63;;;0.50;;
8399;SDS011;4237;47.030;15.396;2024-03-17T11:25:42;0.40;;;0.40;;
8399;SDS011;4237;47.030;15.396;2024-03-17T11:28:14;0.57;;;0.50;;
8399;SDS011;4237;47.030;15.396;2024-03-17T11:30:49;0.50;;;0.50;;
8399;SDS011;4237;47.030;15.396;2024-03-17T11:41:38;0.50;;;0.50;;
8399;SDS011;4237;47.030;15.396;2024-03-17T11:46:59;0.40;;;0.40;;
8399;SDS011;4237;47.030;15.396;2024-03-17T11:49:31;0.80;;;0.50;;
8399;SDS011;4237;47.030;15.396;2024-03-17T11:52:12;0.60;;;0.53;;
8399;SDS011;4237;47.030;15.396;2024-03-17T11:54:43;0.27;;;0.27;;
8399;SDS011;4237;47.030;15.396;2024-03-17T11:57:13;0.83;;;0.50;;
8399;SDS011;4237;47.030;15.396;2024-03-17T11:59:44;0.40;;;0.33;;
8399;SDS011;4237;47.030;15.396;2024-03-17T12:04:56;0.47;;;0.40;;
8399;SDS011;4237;47.030;15.396;2024-03-17T12:07:28;0.50;;;0.50;;
8399;SDS011;4237;47.030;15.396;2024-03-17T12:09:57;1.33;;;0.43;;
8399;SDS011;4237;47.030;15.396;2024-03-17T12:12:27;0.37;;;0.37;;
8399;SDS011;4237;47.030;15.396;2024-03-17T12:14:57;0.33;;;0.30;;
8399;SDS011;4237;47.030;15.396;2024-03-17T12:17:26;0.30;;;0.30;;
8399;SDS011;4237;47.030;15.396;2024-03-17T12:19:54;0.40;;;0.33;;
8399;SDS011;4237;47.030;15.396;2024-03-17T12:22:23;0.40;;;0.40;;
8399;SDS011;4237;47.030;15.396;2024-03-17T12:24:57;0.93;;;0.40;;
8399;SDS011;4237;47.030;15.396;2024-03-17T12:27:26;0.37;;;0.37;;
8399;SDS011;4237;47.030;15.396;2024-03-17T12:29:55;0.93;;;0.60;;
8399;SDS011;4237;47.030;15.396;2024-03-17T12:32:24;0.40;;;0.40;;
8399;SDS011;4237;47.030;15.396;2024-03-17T12:34:57;2.67;;;0.50;;
8399;SDS011;4237;47.030;15.396;2024-03-17T12:37:26;0.50;;;0.40;;
8399;SDS011;4237;47.030;15.396;2024-03-17T12:40:01;0.43;;;0.33;;
8399;SDS011;4237;47.030;15.396;2024-03-17T12:42:30;0.30;;;0.30;;
8399;SDS011;4237;47.030;15.396;2024-03-17T12:45:00;1.33;;;0.50;;
8399;SDS011;4237;47.030;15.396;2024-03-17T12:47:29;0.30;;;0.30;;
8399;SDS011;4237;47.030;15.396;2024-03-17T12:49:59;0.83;;;0.50;;
8399;SDS011;4237;47.030;15.396;2024-03-17T12:52:34;0.70;;;0.50;;
8399;SDS011;4237;47.030;15.396;2024-03-17T12:55:06;0.40;;;0.40;;
8399;SDS011;4237;47.030;15.396;2024-03-17T13:01:04;0.60;;;0.60;;
8399;SDS011;4237;47.030;15.396;2024-03-17T13:03:35;0.57;;;0.40;;
8399;SDS011;4237;47.030;15.396;2024-03-17T13:06:06;0.70;;;0.40;;
8399;SDS011;4237;47.030;15.396;2024-03-17T13:08:37;0.73;;;0.50;;
8399;SDS011;4237;47.030;15.396;2024-03-17T13:11:08;0.50;;;0.50;;
8399;SDS011;4237;47.030;15.396;2024-03-17T13:13:37;0.73;;;0.53;;
8399;SDS011;4237;47.030;15.396;2024-03-17T13:16:05;0.40;;;0.40;;
8399;SDS011;4237;47.030;15.396;2024-03-17T13:18:35;0.40;;;0.40;;
8399;SDS011;4237;47.030;15.396;2024-03-17T13:21:04;0.50;;;0.40;;
8399;SDS011;4237;47.030;15.396;2024-03-17T13:23:33;0.47;;;0.47;;
8399;SDS011;4237;47.030;15.396;2024-03-17T13:26:01;0.47;;;0.47;;
8399;SDS011;4237;47.030;15.396;2024-03-17T13:28:30;0.60;;;0.53;;
8399;SDS011;4237;47.030;15.396;2024-03-17T13:30:58;0.97;;;0.60;;
8399;SDS011;4237;47.030;15.396;2024-03-17T13:33:28;1.50;;;0.60;;
8399;SDS011;4237;47.030;15.396;2024-03-17T13:35:56;1.00;;;0.70;;
8399;SDS011;4237;47.030;15.396;2024-03-17T13:38:25;0.70;;;0.60;;
8399;SDS011;4237;47.030;15.396;2024-03-17T13:40:54;0.60;;;0.60;;
8399;SDS011;4237;47.030;15.396;2024-03-17T13:43:23;1.93;;;0.80;;
8399;SDS011;4237;47.030;15.396;2024-03-17T13:45:51;0.67;;;0.67;;
8399;SDS011;4237;47.030;15.396;2024-03-17T13:48:20;0.90;;;0.70;;
8399;SDS011;4237;47.030;15.396;2024-03-17T13:50:49;1.93;;;0.80;;
8399;SDS011;4237;47.030;15.396;2024-03-17T13:53:17;0.80;;;0.80;;
8399;SDS011;4237;47.030;15.396;2024-03-17T13:55:46;0.83;;;0.83;;
8399;SDS011;4237;47.030;15.396;2024-03-17T13:58:14;1.67;;;1.10;;
8399;SDS011;4237;47.030;15.396;2024-03-17T14:00:43;1.23;;;1.00;;
8399;SDS011;4237;47.030;15.396;2024-03-17T14:03:12;0.80;;;0.80;;
8399;SDS011;4237;47.030;15.396;2024-03-17T14:05:40;1.17;;;0.77;;
8399;SDS011;4237;47.030;15.396;2024-03-17T14:08:09;0.87;;;0.70;;
8399;SDS011;4237;47.030;15.396;2024-03-17T14:10:38;1.43;;;0.80;;
8399;SDS011;4237;47.030;15.396;2024-03-17T14:13:06;2.20;;;1.03;;
8399;SDS011;4237;47.030;15.396;2024-03-17T14:15:35;0.70;;;0.70;;
8399;SDS011;4237;47.030;15.396;2024-03-17T14:18:04;1.23;;;0.90;;
8399;SDS011;4237;47.030;15.396;2024-03-17T14:20:33;1.47;;;0.93;;
8399;SDS011;4237;47.030;15.396;2024-03-17T14:23:04;0.77;;;0.73;;
8399;SDS011;4237;47.030;15.396;2024-03-17T14:25:32;0.80;;;0.80;;
8399;SDS011;4237;47.030;15.396;2024-03-17T14:28:01;1.17;;;0.90;;
8399;SDS011;4237;47.030;15.396;2024-03-17T14:30:30;1.30;;;1.20;;
8399;SDS011;4237;47.030;15.396;2024-03-17T14:33:00;1.03;;;0.87;;
8399;SDS011;4237;47.030;15.396;2024-03-17T14:35:31;1.70;;;0.90;;
8399;SDS011;4237;47.030;15.396;2024-03-17T14:38:00;2.73;;;1.20;;
8399;SDS011;4237;47.030;15.396;2024-03-17T14:40:29;1.47;;;1.30;;
8399;SDS011;4237;47.030;15.396;2024-03-17T14:42:57;1.47;;;1.20;;
8399;SDS011;4237;47.030;15.396;2024-03-17T14:45:26;2.47;;;1.53;;
8399;SDS011;4237;47.030;15.396;2024-03-17T14:47:55;1.93;;;1.63;;
8399;SDS011;4237;47.030;15.396;2024-03-17T14:50:23;2.00;;;1.63;;
8399;SDS011;4237;47.030;15.396;2024-03-17T14:52:52;4.80;;;1.60;;
8399;SDS011;4237;47.030;15.396;2024-03-17T14:55:21;1.53;;;1.37;;
8399;SDS011;4237;47.030;15.396;2024-03-17T14:57:49;1.93;;;1.60;;
8399;SDS011;4237;47.030;15.396;2024-03-17T15:00:18;2.77;;;1.40;;
8399;SDS011;4237;47.030;15.396;2024-03-17T15:02:47;2.43;;;1.60;;
8399;SDS011;4237;47.030;15.396;2024-03-17T15:05:18;2.17;;;1.60;;
8399;SDS011;4237;47.030;15.396;2024-03-17T15:07:46;2.07;;;1.60;;
8399;SDS011;4237;47.030;15.396;2024-03-17T15:10:18;1.70;;;1.60;;
8399;SDS011;4237;47.030;15.396;2024-03-17T15:12:48;2.63;;;1.73;;
8399;SDS011;4237;47.030;15.396;2024-03-17T15:15:17;1.80;;;1.63;;
8399;SDS011;4237;47.030;15.396;2024-03-17T15:17:46;1.60;;;1.27;;
8399;SDS011;4237;47.030;15.396;2024-03-17T15:20:16;2.23;;;1.73;;
8399;SDS011;4237;47.030;15.396;2024-03-17T15:22:47;1.97;;;1.67;;
8399;SDS011;4237;47.030;15.396;2024-03-17T15:25:17;2.57;;;1.60;;
8399;SDS011;4237;47.030;15.396;2024-03-17T15:27:46;1.73;;;1.60;;
8399;SDS011;4237;47.030;15.396;2024-03-17T15:30:15;1.50;;;1.40;;
8399;SDS011;4237;47.030;15.396;2024-03-17T15:32:49;2.23;;;1.50;;
8399;SDS011;4237;47.030;15.396;2024-03-17T15:35:20;1.60;;;1.50;;
8399;SDS011;4237;47.030;15.396;2024-03-17T15:37:51;2.00;;;1.80;;